METAR
LICR 241450Z AUTO 15016KT 9999 OVC076 15/10 Q1004
TAF